sensor_id;sensor_type;location;lat;lon;timestamp;pressure;altitude;pressure_sealevel;temperature;humidity
86038;BME280;76634;47.732;7.348;2024-03-08T00:01:47;97731.25;;;6.94;56.25
86038;BME280;76634;47.732;7.348;2024-03-08T00:04:12;97842.34;;;7.14;56.00
86038;BME280;76634;47.732;7.348;2024-03-08T00:06:38;97808.69;;;7.21;56.28
86038;BME280;76634;47.732;7.348;2024-03-08T00:09:04;97778.69;;;6.93;56.39
86038;BME280;76634;47.732;7.348;2024-03-08T00:11:33;97716.91;;;6.50;56.71
86038;BME280;76634;47.732;7.348;2024-03-08T00:13:58;97809.66;;;7.04;56.50
86038;BME280;76634;47.732;7.348;2024-03-08T00:16:24;97808.81;;;7.02;56.90
86038;BME280;76634;47.732;7.348;2024-03-08T00:18:49;97754.72;;;6.68;56.76
86038;BME280;76634;47.732;7.348;2024-03-08T00:21:14;97822.59;;;7.03;56.81
86038;BME280;76634;47.732;7.348;2024-03-08T00:23:40;97652.53;;;6.15;56.36
86038;BME280;76634;47.732;7.348;2024-03-08T00:26:06;97698.03;;;6.42;56.65
86038;BME280;76634;47.732;7.348;2024-03-08T00:28:32;97773.53;;;6.87;56.67
86038;BME280;76634;47.732;7.348;2024-03-08T00:30:59;97796.75;;;6.97;56.71
86038;BME280;76634;47.732;7.348;2024-03-08T00:33:25;97832.13;;;6.96;56.69
86038;BME280;76634;47.732;7.348;2024-03-08T00:35:50;97795.94;;;6.93;56.82
86038;BME280;76634;47.732;7.348;2024-03-08T00:38:16;97738.41;;;6.60;56.77
86038;BME280;76634;47.732;7.348;2024-03-08T00:40:41;97763.38;;;6.63;57.20
86038;BME280;76634;47.732;7.348;2024-03-08T00:43:07;97735.00;;;6.52;57.18
86038;BME280;76634;47.732;7.348;2024-03-08T00:45:32;97772.69;;;6.85;57.15
86038;BME280;76634;47.732;7.348;2024-03-08T00:47:57;97753.88;;;6.69;57.01
86038;BME280;76634;47.732;7.348;2024-03-08T00:50:23;97746.91;;;6.76;57.17
86038;BME280;76634;47.732;7.348;2024-03-08T00:52:48;97748.59;;;6.80;56.95
86038;BME280;76634;47.732;7.348;2024-03-08T00:55:13;97755.50;;;6.78;56.93
86038;BME280;76634;47.732;7.348;2024-03-08T00:57:39;97776.16;;;6.83;57.33
86038;BME280;76634;47.732;7.348;2024-03-08T01:00:05;97758.94;;;6.80;57.10
86038;BME280;76634;47.732;7.348;2024-03-08T01:02:37;97759.03;;;6.68;57.45
86038;BME280;76634;47.732;7.348;2024-03-08T01:05:03;97774.47;;;6.83;57.66
86038;BME280;76634;47.732;7.348;2024-03-08T01:07:29;97767.53;;;6.87;57.73
86038;BME280;76634;47.732;7.348;2024-03-08T01:09:55;97751.19;;;6.83;57.65
86038;BME280;76634;47.732;7.348;2024-03-08T01:12:21;97758.84;;;6.97;56.96
86038;BME280;76634;47.732;7.348;2024-03-08T01:14:47;97762.25;;;6.99;57.34
86038;BME280;76634;47.732;7.348;2024-03-08T01:17:12;97590.66;;;5.94;57.36
86038;BME280;76634;47.732;7.348;2024-03-08T01:19:38;97732.41;;;6.54;57.56
86038;BME280;76634;47.732;7.348;2024-03-08T01:22:03;97762.47;;;6.68;57.88
86038;BME280;76634;47.732;7.348;2024-03-08T01:24:29;97732.25;;;6.77;57.78
86038;BME280;76634;47.732;7.348;2024-03-08T01:26:54;97544.31;;;5.69;57.46
86038;BME280;76634;47.732;7.348;2024-03-08T01:29:20;97667.03;;;6.38;57.67
86038;BME280;76634;47.732;7.348;2024-03-08T01:31:45;97636.09;;;6.28;57.44
86038;BME280;76634;47.732;7.348;2024-03-08T01:34:10;97729.50;;;6.98;57.62
86038;BME280;76634;47.732;7.348;2024-03-08T01:36:36;97702.78;;;6.96;56.79
86038;BME280;76634;47.732;7.348;2024-03-08T01:39:02;97743.25;;;7.03;56.99
86038;BME280;76634;47.732;7.348;2024-03-08T01:41:33;97709.78;;;6.88;57.03
86038;BME280;76634;47.732;7.348;2024-03-08T01:43:58;97726.03;;;7.01;56.82
86038;BME280;76634;47.732;7.348;2024-03-08T01:46:24;97673.72;;;6.66;57.23
86038;BME280;76634;47.732;7.348;2024-03-08T01:48:50;97710.63;;;6.85;57.33
86038;BME280;76634;47.732;7.348;2024-03-08T01:51:19;97710.69;;;6.78;57.06
86038;BME280;76634;47.732;7.348;2024-03-08T01:53:46;97644.66;;;6.34;57.71
86038;BME280;76634;47.732;7.348;2024-03-08T01:56:12;97660.97;;;6.40;57.41
86038;BME280;76634;47.732;7.348;2024-03-08T01:58:40;97639.47;;;6.38;57.50
86038;BME280;76634;47.732;7.348;2024-03-08T02:01:07;97714.16;;;6.73;57.76
86038;BME280;76634;47.732;7.348;2024-03-08T02:03:34;97694.41;;;6.69;57.53
86038;BME280;76634;47.732;7.348;2024-03-08T02:05:59;97570.88;;;5.94;57.86
86038;BME280;76634;47.732;7.348;2024-03-08T02:08:25;97680.66;;;6.60;58.00
86038;BME280;76634;47.732;7.348;2024-03-08T02:10:50;97669.47;;;6.58;57.58
86038;BME280;76634;47.732;7.348;2024-03-08T02:13:16;97680.56;;;6.75;57.44
86038;BME280;76634;47.732;7.348;2024-03-08T02:15:58;97662.63;;;6.54;57.28
86038;BME280;76634;47.732;7.348;2024-03-08T02:18:25;97676.41;;;6.56;58.14
86038;BME280;76634;47.732;7.348;2024-03-08T02:20:57;97673.88;;;6.45;58.40
86038;BME280;76634;47.732;7.348;2024-03-08T02:23:23;97596.66;;;5.96;58.63
86038;BME280;76634;47.732;7.348;2024-03-08T02:25:53;97568.38;;;5.76;58.53
86038;BME280;76634;47.732;7.348;2024-03-08T02:28:19;97656.84;;;6.15;58.27
86038;BME280;76634;47.732;7.348;2024-03-08T02:30:45;97665.22;;;6.54;58.19
86038;BME280;76634;47.732;7.348;2024-03-08T02:33:13;97618.84;;;6.27;57.83
86038;BME280;76634;47.732;7.348;2024-03-08T02:35:41;97660.00;;;6.55;57.96
86038;BME280;76634;47.732;7.348;2024-03-08T02:38:08;97550.25;;;5.80;57.79
86038;BME280;76634;47.732;7.348;2024-03-08T02:40:33;97566.56;;;5.92;58.18
86038;BME280;76634;47.732;7.348;2024-03-08T02:42:58;97623.16;;;6.25;58.13
86038;BME280;76634;47.732;7.348;2024-03-08T02:45:24;97653.22;;;6.37;58.30
86038;BME280;76634;47.732;7.348;2024-03-08T02:47:49;97651.50;;;6.41;58.09
86038;BME280;76634;47.732;7.348;2024-03-08T02:50:15;97654.88;;;6.54;57.67
86038;BME280;76634;47.732;7.348;2024-03-08T02:52:41;97607.63;;;6.30;57.41
86038;BME280;76634;47.732;7.348;2024-03-08T02:55:07;97586.25;;;6.09;57.67
86038;BME280;76634;47.732;7.348;2024-03-08T02:57:33;97571.69;;;5.98;58.02
86038;BME280;76634;47.732;7.348;2024-03-08T02:59:58;97552.81;;;5.83;58.08
86038;BME280;76634;47.732;7.348;2024-03-08T03:02:25;97650.66;;;6.40;57.86
86038;BME280;76634;47.732;7.348;2024-03-08T03:04:52;97545.91;;;5.87;58.07
86038;BME280;76634;47.732;7.348;2024-03-08T03:07:17;97600.78;;;6.26;57.88
86038;BME280;76634;47.732;7.348;2024-03-08T03:09:42;97619.53;;;6.51;57.56
86038;BME280;76634;47.732;7.348;2024-03-08T03:12:08;97642.75;;;6.59;57.55
86038;BME280;76634;47.732;7.348;2024-03-08T03:14:35;97539.75;;;6.13;57.33
86038;BME280;76634;47.732;7.348;2024-03-08T03:17:03;97597.19;;;6.45;57.40
86038;BME280;76634;47.732;7.348;2024-03-08T03:19:29;97621.16;;;6.67;57.32
86038;BME280;76634;47.732;7.348;2024-03-08T03:21:55;97593.72;;;6.46;57.28
86038;BME280;76634;47.732;7.348;2024-03-08T03:24:20;97568.06;;;6.25;57.67
86038;BME280;76634;47.732;7.348;2024-03-08T03:26:46;97603.31;;;6.35;57.73
86038;BME280;76634;47.732;7.348;2024-03-08T03:29:13;97604.09;;;6.42;57.98
86038;BME280;76634;47.732;7.348;2024-03-08T03:31:39;97611.84;;;6.43;57.96
86038;BME280;76634;47.732;7.348;2024-03-08T03:34:05;97442.16;;;5.34;57.65
86038;BME280;76634;47.732;7.348;2024-03-08T03:36:34;97614.25;;;6.66;57.57
86038;BME280;76634;47.732;7.348;2024-03-08T03:39:00;97480.56;;;5.79;57.40
86038;BME280;76634;47.732;7.348;2024-03-08T03:41:41;97606.72;;;6.40;57.75
86038;BME280;76634;47.732;7.348;2024-03-08T03:44:08;97608.38;;;6.46;57.54
86038;BME280;76634;47.732;7.348;2024-03-08T03:46:34;97610.13;;;6.47;57.92
86038;BME280;76634;47.732;7.348;2024-03-08T03:48:59;97611.88;;;6.40;57.94
86038;BME280;76634;47.732;7.348;2024-03-08T03:51:24;97389.94;;;4.92;58.73
86038;BME280;76634;47.732;7.348;2024-03-08T03:53:51;97594.69;;;6.38;58.39
86038;BME280;76634;47.732;7.348;2024-03-08T03:56:16;97508.03;;;5.86;58.22
86038;BME280;76634;47.732;7.348;2024-03-08T03:58:41;97502.88;;;5.86;58.08
86038;BME280;76634;47.732;7.348;2024-03-08T04:01:08;97563.94;;;6.01;58.30
86038;BME280;76634;47.732;7.348;2024-03-08T04:03:34;97553.56;;;6.04;58.26
86038;BME280;76634;47.732;7.348;2024-03-08T04:06:00;97598.16;;;6.32;58.57
86038;BME280;76634;47.732;7.348;2024-03-08T04:08:27;97549.19;;;6.14;58.19
86038;BME280;76634;47.732;7.348;2024-03-08T04:10:52;97407.91;;;5.09;58.69
86038;BME280;76634;47.732;7.348;2024-03-08T04:13:17;97566.44;;;6.15;58.46
86038;BME280;76634;47.732;7.348;2024-03-08T04:15:43;97507.19;;;5.87;58.58
86038;BME280;76634;47.732;7.348;2024-03-08T04:18:12;97574.19;;;6.12;58.70
86038;BME280;76634;47.732;7.348;2024-03-08T04:20:38;97471.25;;;5.52;58.63
86038;BME280;76634;47.732;7.348;2024-03-08T04:23:05;97584.63;;;5.96;59.27
86038;BME280;76634;47.732;7.348;2024-03-08T04:25:31;97505.63;;;5.60;59.05
86038;BME280;76634;47.732;7.348;2024-03-08T04:27:56;97403.56;;;5.14;58.16
86038;BME280;76634;47.732;7.348;2024-03-08T04:30:21;97591.22;;;6.39;58.13
86038;BME280;76634;47.732;7.348;2024-03-08T04:32:47;97584.59;;;5.98;59.08
86038;BME280;76634;47.732;7.348;2024-03-08T04:35:12;97480.19;;;4.84;59.29
86038;BME280;76634;47.732;7.348;2024-03-08T04:37:38;97568.34;;;5.77;59.37
86038;BME280;76634;47.732;7.348;2024-03-08T04:40:04;97383.97;;;4.86;58.78
86038;BME280;76634;47.732;7.348;2024-03-08T04:42:30;97511.00;;;5.23;59.42
86038;BME280;76634;47.732;7.348;2024-03-08T04:44:57;97533.97;;;5.67;58.59
86038;BME280;76634;47.732;7.348;2024-03-08T04:47:23;97445.56;;;5.38;57.62
86038;BME280;76634;47.732;7.348;2024-03-08T04:49:48;97436.88;;;5.50;57.37
86038;BME280;76634;47.732;7.348;2024-03-08T04:52:15;97587.66;;;6.50;57.15
86038;BME280;76634;47.732;7.348;2024-03-08T04:54:41;97575.03;;;6.17;56.78
86038;BME280;76634;47.732;7.348;2024-03-08T04:57:07;97565.38;;;6.39;56.91
86038;BME280;76634;47.732;7.348;2024-03-08T04:59:32;97268.16;;;4.58;56.94
86038;BME280;76634;47.732;7.348;2024-03-08T05:01:58;97559.47;;;6.24;57.34
86038;BME280;76634;47.732;7.348;2024-03-08T05:04:23;97464.38;;;5.54;57.43
86038;BME280;76634;47.732;7.348;2024-03-08T05:06:49;97527.81;;;5.96;57.61
86038;BME280;76634;47.732;7.348;2024-03-08T05:09:14;97429.16;;;5.46;57.15
86038;BME280;76634;47.732;7.348;2024-03-08T05:11:44;97616.09;;;6.50;56.66
86038;BME280;76634;47.732;7.348;2024-03-08T05:14:10;97564.47;;;6.44;56.80
86038;BME280;76634;47.732;7.348;2024-03-08T05:16:36;97527.66;;;6.18;56.59
86038;BME280;76634;47.732;7.348;2024-03-08T05:19:02;97538.09;;;6.05;57.28
86038;BME280;76634;47.732;7.348;2024-03-08T05:21:27;97566.28;;;6.30;57.36
86038;BME280;76634;47.732;7.348;2024-03-08T05:23:54;97570.59;;;6.29;56.99
86038;BME280;76634;47.732;7.348;2024-03-08T05:26:19;97593.03;;;6.24;57.43
86038;BME280;76634;47.732;7.348;2024-03-08T05:28:45;97471.19;;;5.65;57.30
86038;BME280;76634;47.732;7.348;2024-03-08T05:31:18;97566.28;;;6.33;56.83
86038;BME280;76634;47.732;7.348;2024-03-08T05:33:44;97561.13;;;6.30;57.04
86038;BME280;76634;47.732;7.348;2024-03-08T05:36:09;97550.13;;;6.05;57.45
86038;BME280;76634;47.732;7.348;2024-03-08T05:38:36;97558.78;;;5.93;58.01
86038;BME280;76634;47.732;7.348;2024-03-08T05:41:02;97535.75;;;5.58;58.58
86038;BME280;76634;47.732;7.348;2024-03-08T05:43:27;97532.19;;;5.77;58.79
86038;BME280;76634;47.732;7.348;2024-03-08T05:45:52;97552.91;;;5.70;59.88
86038;BME280;76634;47.732;7.348;2024-03-08T05:48:18;97552.97;;;5.56;60.35
86038;BME280;76634;47.732;7.348;2024-03-08T05:50:43;97456.97;;;4.88;61.05
86038;BME280;76634;47.732;7.348;2024-03-08T05:53:09;97518.66;;;5.41;60.81
86038;BME280;76634;47.732;7.348;2024-03-08T05:55:34;97520.28;;;5.59;60.36
86038;BME280;76634;47.732;7.348;2024-03-08T05:58:00;97461.31;;;4.86;60.95
86038;BME280;76634;47.732;7.348;2024-03-08T06:00:26;97420.19;;;4.52;61.79
86038;BME280;76634;47.732;7.348;2024-03-08T06:02:52;97529.94;;;5.13;61.50
86038;BME280;76634;47.732;7.348;2024-03-08T06:05:17;97475.88;;;4.93;61.52
86038;BME280;76634;47.732;7.348;2024-03-08T06:07:43;97522.06;;;5.45;60.86
86038;BME280;76634;47.732;7.348;2024-03-08T06:10:09;97515.25;;;5.32;60.83
86038;BME280;76634;47.732;7.348;2024-03-08T06:12:35;97527.13;;;5.59;60.44
86038;BME280;76634;47.732;7.348;2024-03-08T06:15:06;97483.44;;;5.33;60.45
86038;BME280;76634;47.732;7.348;2024-03-08T06:17:31;97515.09;;;5.64;59.85
86038;BME280;76634;47.732;7.348;2024-03-08T06:19:56;97360.06;;;4.51;60.31
86038;BME280;76634;47.732;7.348;2024-03-08T06:22:22;97312.06;;;4.35;60.18
86038;BME280;76634;47.732;7.348;2024-03-08T06:24:47;97487.47;;;5.75;59.20
86038;BME280;76634;47.732;7.348;2024-03-08T06:27:12;97524.19;;;6.20;58.15
86038;BME280;76634;47.732;7.348;2024-03-08T06:29:39;97521.34;;;6.49;57.38
86038;BME280;76634;47.732;7.348;2024-03-08T06:32:04;97466.53;;;6.14;57.09
86038;BME280;76634;47.732;7.348;2024-03-08T06:34:32;97409.03;;;5.92;57.21
86038;BME280;76634;47.732;7.348;2024-03-08T06:36:59;97542.72;;;6.67;56.95
86038;BME280;76634;47.732;7.348;2024-03-08T06:39:26;97482.16;;;6.03;57.36
86038;BME280;76634;47.732;7.348;2024-03-08T06:41:51;97460.75;;;5.82;58.32
86038;BME280;76634;47.732;7.348;2024-03-08T06:44:17;97289.41;;;4.91;57.74
86038;BME280;76634;47.732;7.348;2024-03-08T06:46:42;97533.25;;;6.66;57.26
86038;BME280;76634;47.732;7.348;2024-03-08T06:49:07;97498.94;;;6.48;57.11
86038;BME280;76634;47.732;7.348;2024-03-08T06:51:34;97525.53;;;6.61;57.19
86038;BME280;76634;47.732;7.348;2024-03-08T06:54:00;97496.47;;;6.36;57.60
86038;BME280;76634;47.732;7.348;2024-03-08T06:56:25;97407.22;;;6.04;57.55
86038;BME280;76634;47.732;7.348;2024-03-08T06:58:51;97445.69;;;6.34;57.00
86038;BME280;76634;47.732;7.348;2024-03-08T07:01:17;97514.25;;;6.68;57.04
86038;BME280;76634;47.732;7.348;2024-03-08T07:03:42;97524.56;;;6.73;57.94
86038;BME280;76634;47.732;7.348;2024-03-08T07:06:10;97494.44;;;6.70;57.34
86038;BME280;76634;47.732;7.348;2024-03-08T07:08:36;97492.38;;;7.00;56.82
86038;BME280;76634;47.732;7.348;2024-03-08T07:11:01;97419.44;;;6.72;56.27
86038;BME280;76634;47.732;7.348;2024-03-08T07:13:26;97496.91;;;6.81;57.42
86038;BME280;76634;47.732;7.348;2024-03-08T07:15:55;97429.28;;;6.36;58.12
86038;BME280;76634;47.732;7.348;2024-03-08T07:18:20;97501.16;;;6.85;57.54
86038;BME280;76634;47.732;7.348;2024-03-08T07:20:47;97530.72;;;7.39;57.22
86038;BME280;76634;47.732;7.348;2024-03-08T07:23:14;97505.09;;;7.17;57.40
86038;BME280;76634;47.732;7.348;2024-03-08T07:25:59;97511.47;;;7.56;56.59
86038;BME280;76634;47.732;7.348;2024-03-08T07:28:26;97495.22;;;7.45;56.69
86038;BME280;76634;47.732;7.348;2024-03-08T07:30:52;97488.44;;;7.40;56.63
86038;BME280;76634;47.732;7.348;2024-03-08T07:33:26;97477.22;;;7.38;56.52
86038;BME280;76634;47.732;7.348;2024-03-08T07:35:52;97511.66;;;7.43;57.01
86038;BME280;76634;47.732;7.348;2024-03-08T07:38:17;97515.06;;;7.48;56.75
86038;BME280;76634;47.732;7.348;2024-03-08T07:40:46;97496.06;;;7.47;57.17
86038;BME280;76634;47.732;7.348;2024-03-08T07:43:13;97531.88;;;7.80;56.12
86038;BME280;76634;47.732;7.348;2024-03-08T07:45:39;97524.72;;;7.33;56.59
86038;BME280;76634;47.732;7.348;2024-03-08T07:48:05;97524.94;;;7.82;56.15
86038;BME280;76634;47.732;7.348;2024-03-08T07:50:37;97489.44;;;7.91;56.19
86038;BME280;76634;47.732;7.348;2024-03-08T07:53:04;97551.91;;;8.26;54.92
86038;BME280;76634;47.732;7.348;2024-03-08T07:55:31;97478.81;;;9.03;52.88
86038;BME280;76634;47.732;7.348;2024-03-08T07:57:56;97315.34;;;8.19;51.47
86038;BME280;76634;47.732;7.348;2024-03-08T08:00:22;97510.25;;;9.31;52.01
86038;BME280;76634;47.732;7.348;2024-03-08T08:02:49;97511.81;;;8.98;52.50
86038;BME280;76634;47.732;7.348;2024-03-08T08:05:15;97510.06;;;8.52;53.99
86038;BME280;76634;47.732;7.348;2024-03-08T08:07:44;97501.25;;;9.07;52.66
86038;BME280;76634;47.732;7.348;2024-03-08T08:10:09;97408.00;;;8.06;53.31
86038;BME280;76634;47.732;7.348;2024-03-08T08:12:42;97503.75;;;9.10;52.63
86038;BME280;76634;47.732;7.348;2024-03-08T08:15:07;97493.41;;;9.90;50.82
86038;BME280;76634;47.732;7.348;2024-03-08T08:17:33;97378.47;;;9.42;49.31
86038;BME280;76634;47.732;7.348;2024-03-08T08:20:00;97472.84;;;9.80;50.75
86038;BME280;76634;47.732;7.348;2024-03-08T08:22:25;97473.81;;;9.36;51.12
86038;BME280;76634;47.732;7.348;2024-03-08T08:24:50;97430.03;;;9.20;50.60
86038;BME280;76634;47.732;7.348;2024-03-08T08:27:17;97487.34;;;10.26;49.43
86038;BME280;76634;47.732;7.348;2024-03-08T08:29:43;97305.47;;;9.17;48.98
86038;BME280;76634;47.732;7.348;2024-03-08T08:32:08;97422.22;;;9.95;49.28
86038;BME280;76634;47.732;7.348;2024-03-08T08:34:34;97440.72;;;9.83;49.61
86038;BME280;76634;47.732;7.348;2024-03-08T08:36:59;97458.44;;;10.03;48.96
86038;BME280;76634;47.732;7.348;2024-03-08T08:39:25;97482.19;;;10.92;48.04
86038;BME280;76634;47.732;7.348;2024-03-08T08:41:51;97416.84;;;12.14;44.97
86038;BME280;76634;47.732;7.348;2024-03-08T08:44:17;97467.81;;;13.70;41.58
86038;BME280;76634;47.732;7.348;2024-03-08T08:46:43;97434.41;;;13.33;41.52
86038;BME280;76634;47.732;7.348;2024-03-08T08:49:08;97474.44;;;12.85;42.49
86038;BME280;76634;47.732;7.348;2024-03-08T08:51:36;97456.28;;;13.30;41.50
86038;BME280;76634;47.732;7.348;2024-03-08T08:54:02;97249.00;;;11.91;42.07
86038;BME280;76634;47.732;7.348;2024-03-08T08:56:27;97475.00;;;13.65;41.17
86038;BME280;76634;47.732;7.348;2024-03-08T08:58:54;97472.91;;;13.97;39.95
86038;BME280;76634;47.732;7.348;2024-03-08T09:01:20;97474.41;;;14.24;40.44
86038;BME280;76634;47.732;7.348;2024-03-08T09:03:45;97467.28;;;13.38;42.26
86038;BME280;76634;47.732;7.348;2024-03-08T09:06:15;97430.25;;;13.04;41.89
86038;BME280;76634;47.732;7.348;2024-03-08T09:08:41;97439.16;;;12.98;42.66
86038;BME280;76634;47.732;7.348;2024-03-08T09:11:07;97347.81;;;12.96;41.87
86038;BME280;76634;47.732;7.348;2024-03-08T09:13:33;97277.97;;;12.07;42.26
86038;BME280;76634;47.732;7.348;2024-03-08T09:16:02;97467.75;;;13.50;41.26
86038;BME280;76634;47.732;7.348;2024-03-08T09:18:28;97461.84;;;14.33;39.75
86038;BME280;76634;47.732;7.348;2024-03-08T09:20:54;97322.88;;;14.59;38.02
86038;BME280;76634;47.732;7.348;2024-03-08T09:23:20;97432.22;;;14.94;38.41
86038;BME280;76634;47.732;7.348;2024-03-08T09:25:45;97435.50;;;15.75;37.45
86038;BME280;76634;47.732;7.348;2024-03-08T09:28:11;97418.28;;;15.31;37.86
86038;BME280;76634;47.732;7.348;2024-03-08T09:30:38;97186.75;;;14.20;37.22
86038;BME280;76634;47.732;7.348;2024-03-08T09:33:04;97421.72;;;14.94;37.74
86038;BME280;76634;47.732;7.348;2024-03-08T09:35:29;97444.94;;;14.40;40.00
86038;BME280;76634;47.732;7.348;2024-03-08T09:37:55;97320.91;;;12.71;41.64
86038;BME280;76634;47.732;7.348;2024-03-08T09:40:21;97463.00;;;13.12;42.52
86038;BME280;76634;47.732;7.348;2024-03-08T09:42:48;97427.41;;;13.79;41.31
86038;BME280;76634;47.732;7.348;2024-03-08T09:45:14;97340.13;;;13.15;41.40
86038;BME280;76634;47.732;7.348;2024-03-08T09:47:44;97241.06;;;12.89;40.94
86038;BME280;76634;47.732;7.348;2024-03-08T09:50:10;97414.13;;;13.61;42.66
86038;BME280;76634;47.732;7.348;2024-03-08T09:52:38;97311.28;;;13.62;40.44
86038;BME280;76634;47.732;7.348;2024-03-08T09:55:05;97374.22;;;14.00;41.29
86038;BME280;76634;47.732;7.348;2024-03-08T09:57:32;97397.78;;;14.41;39.93
86038;BME280;76634;47.732;7.348;2024-03-08T09:59:58;97337.78;;;13.31;41.41
86038;BME280;76634;47.732;7.348;2024-03-08T10:02:24;97377.16;;;13.71;41.44
86038;BME280;76634;47.732;7.348;2024-03-08T10:04:51;97301.34;;;13.27;41.12
86038;BME280;76634;47.732;7.348;2024-03-08T10:07:18;97398.47;;;13.39;41.52
86038;BME280;76634;47.732;7.348;2024-03-08T10:09:43;97355.31;;;13.51;41.61
86038;BME280;76634;47.732;7.348;2024-03-08T10:12:18;97394.59;;;15.14;39.42
86038;BME280;76634;47.732;7.348;2024-03-08T10:14:44;97358.91;;;15.11;39.15
86038;BME280;76634;47.732;7.348;2024-03-08T10:17:10;97371.91;;;15.14;38.89
86038;BME280;76634;47.732;7.348;2024-03-08T10:19:35;97381.06;;;15.61;38.24
86038;BME280;76634;47.732;7.348;2024-03-08T10:22:01;97330.56;;;14.62;39.02
86038;BME280;76634;47.732;7.348;2024-03-08T10:24:26;97374.09;;;14.44;40.16
86038;BME280;76634;47.732;7.348;2024-03-08T10:27:02;97367.34;;;14.80;39.51
86038;BME280;76634;47.732;7.348;2024-03-08T10:29:31;97365.97;;;14.30;38.95
86038;BME280;76634;47.732;7.348;2024-03-08T10:31:57;97265.34;;;13.98;39.39
86038;BME280;76634;47.732;7.348;2024-03-08T10:34:23;97379.44;;;14.82;39.29
86038;BME280;76634;47.732;7.348;2024-03-08T10:36:50;97370.97;;;15.15;39.16
86038;BME280;76634;47.732;7.348;2024-03-08T10:39:25;97265.13;;;13.82;40.25
86038;BME280;76634;47.732;7.348;2024-03-08T10:41:56;97352.63;;;15.15;39.08
86038;BME280;76634;47.732;7.348;2024-03-08T10:47:27;97355.41;;;14.93;39.03
86038;BME280;76634;47.732;7.348;2024-03-08T10:50:08;97347.66;;;16.01;37.56
86038;BME280;76634;47.732;7.348;2024-03-08T10:52:38;97340.19;;;16.10;37.05
86038;BME280;76634;47.732;7.348;2024-03-08T10:55:05;97318.69;;;15.67;37.36
86038;BME280;76634;47.732;7.348;2024-03-08T10:57:38;97301.53;;;16.47;35.52
86038;BME280;76634;47.732;7.348;2024-03-08T11:00:06;97342.53;;;17.16;34.65
86038;BME280;76634;47.732;7.348;2024-03-08T11:02:35;97322.97;;;15.51;37.36
86038;BME280;76634;47.732;7.348;2024-03-08T11:05:01;97317.81;;;16.87;34.94
86038;BME280;76634;47.732;7.348;2024-03-08T11:07:33;97356.41;;;16.01;36.57
86038;BME280;76634;47.732;7.348;2024-03-08T11:10:02;97336.63;;;16.80;35.41
86038;BME280;76634;47.732;7.348;2024-03-08T11:12:36;97339.06;;;17.62;34.19
86038;BME280;76634;47.732;7.348;2024-03-08T11:15:09;97321.31;;;17.97;33.62
86038;BME280;76634;47.732;7.348;2024-03-08T11:20:14;97316.31;;;17.15;34.63
86038;BME280;76634;47.732;7.348;2024-03-08T11:22:42;97308.88;;;17.69;33.32
86038;BME280;76634;47.732;7.348;2024-03-08T11:28:13;97287.75;;;17.55;34.23
86038;BME280;76634;47.732;7.348;2024-03-08T11:33:28;97323.47;;;18.50;32.65
86038;BME280;76634;47.732;7.348;2024-03-08T11:36:22;97286.47;;;18.22;32.71
86038;BME280;76634;47.732;7.348;2024-03-08T11:38:48;97246.22;;;18.63;32.73
86038;BME280;76634;47.732;7.348;2024-03-08T11:41:16;97237.44;;;18.92;32.07
86038;BME280;76634;47.732;7.348;2024-03-08T11:43:43;97122.47;;;17.33;32.69
86038;BME280;76634;47.732;7.348;2024-03-08T11:46:10;97253.56;;;18.87;32.16
86038;BME280;76634;47.732;7.348;2024-03-08T11:48:37;97283.09;;;19.34;31.01
86038;BME280;76634;47.732;7.348;2024-03-08T11:51:03;97257.41;;;18.24;32.10
86038;BME280;76634;47.732;7.348;2024-03-08T11:53:30;97057.88;;;15.22;34.92
86038;BME280;76634;47.732;7.348;2024-03-08T11:56:06;97087.13;;;16.14;34.75
86038;BME280;76634;47.732;7.348;2024-03-08T11:58:32;97155.00;;;16.05;35.79
86038;BME280;76634;47.732;7.348;2024-03-08T12:01:07;97179.56;;;14.99;37.97
86038;BME280;76634;47.732;7.348;2024-03-08T12:03:34;97038.06;;;14.11;38.21
86038;BME280;76634;47.732;7.348;2024-03-08T12:06:00;97233.75;;;15.70;38.25
86038;BME280;76634;47.732;7.348;2024-03-08T12:08:27;97243.44;;;14.97;39.00
86038;BME280;76634;47.732;7.348;2024-03-08T12:10:55;97222.22;;;15.20;39.24
86038;BME280;76634;47.732;7.348;2024-03-08T12:13:28;97103.25;;;12.53;42.46
86038;BME280;76634;47.732;7.348;2024-03-08T12:15:57;97189.78;;;12.64;44.62
86038;BME280;76634;47.732;7.348;2024-03-08T12:18:25;97105.38;;;11.50;46.63
86038;BME280;76634;47.732;7.348;2024-03-08T12:20:51;97004.69;;;12.17;43.76
86038;BME280;76634;47.732;7.348;2024-03-08T12:23:16;97150.69;;;13.68;42.12
86038;BME280;76634;47.732;7.348;2024-03-08T12:25:42;97167.50;;;13.83;41.62
86038;BME280;76634;47.732;7.348;2024-03-08T12:28:08;97132.50;;;14.04;40.88
86038;BME280;76634;47.732;7.348;2024-03-08T12:30:51;97074.25;;;14.75;39.70
86038;BME280;76634;47.732;7.348;2024-03-08T12:33:19;97109.75;;;14.63;38.72
86038;BME280;76634;47.732;7.348;2024-03-08T12:35:52;97147.75;;;15.24;38.86
86038;BME280;76634;47.732;7.348;2024-03-08T12:38:24;97150.97;;;16.31;37.37
86038;BME280;76634;47.732;7.348;2024-03-08T12:40:50;97038.97;;;15.66;37.09
86038;BME280;76634;47.732;7.348;2024-03-08T12:43:15;97162.44;;;16.77;36.85
86038;BME280;76634;47.732;7.348;2024-03-08T12:45:41;97175.44;;;17.11;35.55
86038;BME280;76634;47.732;7.348;2024-03-08T12:48:13;97072.72;;;16.99;34.82
86038;BME280;76634;47.732;7.348;2024-03-08T12:50:40;97183.97;;;17.60;34.70
86038;BME280;76634;47.732;7.348;2024-03-08T12:53:05;96960.44;;;17.73;33.10
86038;BME280;76634;47.732;7.348;2024-03-08T12:55:31;97100.69;;;19.40;30.81
86038;BME280;76634;47.732;7.348;2024-03-08T12:57:57;97160.56;;;20.03;30.61
86038;BME280;76634;47.732;7.348;2024-03-08T13:00:24;97016.31;;;21.10;28.29
86038;BME280;76634;47.732;7.348;2024-03-08T13:02:50;96972.44;;;20.72;28.71
86038;BME280;76634;47.732;7.348;2024-03-08T13:05:16;97126.44;;;21.93;27.78
86038;BME280;76634;47.732;7.348;2024-03-08T13:07:43;97116.13;;;22.78;27.13
86038;BME280;76634;47.732;7.348;2024-03-08T13:10:14;97077.41;;;20.83;28.72
86038;BME280;76634;47.732;7.348;2024-03-08T13:12:44;97113.94;;;21.95;28.21
86038;BME280;76634;47.732;7.348;2024-03-08T13:15:10;97123.78;;;21.93;27.64
86038;BME280;76634;47.732;7.348;2024-03-08T13:17:56;97086.91;;;21.45;27.98